sensor_id;sensor_type;location;lat;lon;timestamp;P1;durP1;ratioP1;P2;durP2;ratioP2
4577;SDS011;2301;47.354;8.528;2022-08-21T00:01:43;6.50;;;2.10;;
4577;SDS011;2301;47.354;8.528;2022-08-21T00:04:11;4.40;;;1.70;;
4577;SDS011;2301;47.354;8.528;2022-08-21T00:06:38;2.07;;;1.90;;
4577;SDS011;2301;47.354;8.528;2022-08-21T00:09:05;2.03;;;1.50;;
4577;SDS011;2301;47.354;8.528;2022-08-21T00:11:36;6.70;;;1.93;;
4577;SDS011;2301;47.354;8.528;2022-08-21T00:14:04;1.90;;;1.80;;
4577;SDS011;2301;47.354;8.528;2022-08-21T00:16:32;3.17;;;2.10;;
4577;SDS011;2301;47.354;8.528;2022-08-21T00:18:59;4.80;;;2.00;;
4577;SDS011;2301;47.354;8.528;2022-08-21T00:21:26;6.20;;;2.03;;
4577;SDS011;2301;47.354;8.528;2022-08-21T00:23:53;1.80;;;1.70;;
4577;SDS011;2301;47.354;8.528;2022-08-21T00:26:20;3.83;;;1.80;;
4577;SDS011;2301;47.354;8.528;2022-08-21T00:28:48;1.80;;;1.70;;
4577;SDS011;2301;47.354;8.528;2022-08-21T00:31:15;2.70;;;2.00;;
4577;SDS011;2301;47.354;8.528;2022-08-21T00:33:43;1.70;;;1.53;;
4577;SDS011;2301;47.354;8.528;2022-08-21T00:36:11;4.50;;;2.20;;
4577;SDS011;2301;47.354;8.528;2022-08-21T00:38:38;2.50;;;2.30;;
4577;SDS011;2301;47.354;8.528;2022-08-21T00:41:07;10.90;;;2.27;;
4577;SDS011;2301;47.354;8.528;2022-08-21T00:43:36;2.23;;;2.03;;
4577;SDS011;2301;47.354;8.528;2022-08-21T00:46:06;2.90;;;2.13;;
4577;SDS011;2301;47.354;8.528;2022-08-21T00:48:33;3.40;;;2.10;;
4577;SDS011;2301;47.354;8.528;2022-08-21T00:51:02;6.23;;;1.87;;
4577;SDS011;2301;47.354;8.528;2022-08-21T00:53:31;2.63;;;2.10;;
4577;SDS011;2301;47.354;8.528;2022-08-21T00:56:00;2.20;;;2.00;;
4577;SDS011;2301;47.354;8.528;2022-08-21T00:58:28;2.87;;;2.50;;
4577;SDS011;2301;47.354;8.528;2022-08-21T01:00:56;2.90;;;2.40;;
4577;SDS011;2301;47.354;8.528;2022-08-21T01:03:28;2.07;;;1.97;;
4577;SDS011;2301;47.354;8.528;2022-08-21T01:05:55;4.30;;;2.10;;
4577;SDS011;2301;47.354;8.528;2022-08-21T01:08:22;4.53;;;2.60;;
4577;SDS011;2301;47.354;8.528;2022-08-21T01:10:49;2.53;;;2.33;;
4577;SDS011;2301;47.354;8.528;2022-08-21T01:13:18;2.80;;;2.60;;
4577;SDS011;2301;47.354;8.528;2022-08-21T01:15:47;6.90;;;2.93;;
4577;SDS011;2301;47.354;8.528;2022-08-21T01:18:18;8.30;;;3.40;;
4577;SDS011;2301;47.354;8.528;2022-08-21T01:20:58;3.73;;;2.87;;
4577;SDS011;2301;47.354;8.528;2022-08-21T01:23:26;4.77;;;3.73;;
4577;SDS011;2301;47.354;8.528;2022-08-21T01:25:53;4.23;;;3.93;;
4577;SDS011;2301;47.354;8.528;2022-08-21T01:28:21;10.23;;;3.90;;
4577;SDS011;2301;47.354;8.528;2022-08-21T01:30:48;5.33;;;3.63;;
4577;SDS011;2301;47.354;8.528;2022-08-21T01:33:17;4.03;;;3.47;;
4577;SDS011;2301;47.354;8.528;2022-08-21T01:35:45;4.50;;;3.37;;
4577;SDS011;2301;47.354;8.528;2022-08-21T01:38:13;4.23;;;3.80;;
4577;SDS011;2301;47.354;8.528;2022-08-21T01:40:40;5.00;;;3.60;;
4577;SDS011;2301;47.354;8.528;2022-08-21T01:43:07;10.60;;;3.00;;
4577;SDS011;2301;47.354;8.528;2022-08-21T01:45:34;3.40;;;3.10;;
4577;SDS011;2301;47.354;8.528;2022-08-21T01:48:01;3.07;;;2.77;;
4577;SDS011;2301;47.354;8.528;2022-08-21T01:50:28;3.20;;;2.90;;
4577;SDS011;2301;47.354;8.528;2022-08-21T01:52:55;6.57;;;2.63;;
4577;SDS011;2301;47.354;8.528;2022-08-21T01:55:24;3.73;;;2.80;;
4577;SDS011;2301;47.354;8.528;2022-08-21T01:57:51;5.80;;;2.90;;
4577;SDS011;2301;47.354;8.528;2022-08-21T02:00:19;11.10;;;2.37;;
4577;SDS011;2301;47.354;8.528;2022-08-21T02:02:49;2.47;;;2.27;;
4577;SDS011;2301;47.354;8.528;2022-08-21T02:05:17;3.00;;;2.40;;
4577;SDS011;2301;47.354;8.528;2022-08-21T02:07:45;2.43;;;2.23;;
4577;SDS011;2301;47.354;8.528;2022-08-21T02:10:19;3.03;;;2.00;;
4577;SDS011;2301;47.354;8.528;2022-08-21T02:12:50;2.20;;;2.00;;
4577;SDS011;2301;47.354;8.528;2022-08-21T02:15:17;3.63;;;2.50;;
4577;SDS011;2301;47.354;8.528;2022-08-21T02:17:45;2.17;;;1.97;;
4577;SDS011;2301;47.354;8.528;2022-08-21T02:20:15;4.47;;;2.00;;
4577;SDS011;2301;47.354;8.528;2022-08-21T02:22:44;2.37;;;2.17;;
4577;SDS011;2301;47.354;8.528;2022-08-21T02:25:11;2.30;;;2.10;;
4577;SDS011;2301;47.354;8.528;2022-08-21T02:27:39;2.33;;;2.13;;
4577;SDS011;2301;47.354;8.528;2022-08-21T02:30:10;3.80;;;2.40;;
4577;SDS011;2301;47.354;8.528;2022-08-21T02:32:39;2.50;;;2.27;;
4577;SDS011;2301;47.354;8.528;2022-08-21T02:35:07;4.50;;;2.00;;
4577;SDS011;2301;47.354;8.528;2022-08-21T02:37:42;4.03;;;2.10;;
4577;SDS011;2301;47.354;8.528;2022-08-21T02:40:10;3.67;;;2.20;;
4577;SDS011;2301;47.354;8.528;2022-08-21T02:42:38;3.80;;;2.10;;
4577;SDS011;2301;47.354;8.528;2022-08-21T02:45:05;2.13;;;2.00;;
4577;SDS011;2301;47.354;8.528;2022-08-21T02:47:34;2.20;;;2.00;;
4577;SDS011;2301;47.354;8.528;2022-08-21T02:50:01;2.03;;;1.83;;
4577;SDS011;2301;47.354;8.528;2022-08-21T02:52:28;2.43;;;2.23;;
4577;SDS011;2301;47.354;8.528;2022-08-21T02:54:55;1.73;;;1.63;;
4577;SDS011;2301;47.354;8.528;2022-08-21T02:57:22;3.60;;;1.80;;
4577;SDS011;2301;47.354;8.528;2022-08-21T02:59:49;2.00;;;1.80;;
4577;SDS011;2301;47.354;8.528;2022-08-21T03:02:16;4.80;;;2.20;;
4577;SDS011;2301;47.354;8.528;2022-08-21T03:04:44;2.17;;;2.00;;
4577;SDS011;2301;47.354;8.528;2022-08-21T03:07:11;2.40;;;2.20;;
4577;SDS011;2301;47.354;8.528;2022-08-21T03:09:37;2.43;;;2.23;;
4577;SDS011;2301;47.354;8.528;2022-08-21T03:12:04;1.57;;;1.47;;
4577;SDS011;2301;47.354;8.528;2022-08-21T03:14:32;1.93;;;1.80;;
4577;SDS011;2301;47.354;8.528;2022-08-21T03:16:58;3.07;;;2.00;;
4577;SDS011;2301;47.354;8.528;2022-08-21T03:19:25;2.37;;;2.13;;
4577;SDS011;2301;47.354;8.528;2022-08-21T03:21:53;4.30;;;2.07;;
4577;SDS011;2301;47.354;8.528;2022-08-21T03:24:20;2.00;;;1.80;;
4577;SDS011;2301;47.354;8.528;2022-08-21T03:26:47;4.63;;;2.20;;
4577;SDS011;2301;47.354;8.528;2022-08-21T03:29:14;1.63;;;1.53;;
4577;SDS011;2301;47.354;8.528;2022-08-21T03:31:41;2.20;;;1.83;;
4577;SDS011;2301;47.354;8.528;2022-08-21T03:34:08;2.90;;;1.73;;
4577;SDS011;2301;47.354;8.528;2022-08-21T03:36:35;3.20;;;1.50;;
4577;SDS011;2301;47.354;8.528;2022-08-21T03:39:03;1.80;;;1.70;;
4577;SDS011;2301;47.354;8.528;2022-08-21T03:41:30;4.10;;;1.77;;
4577;SDS011;2301;47.354;8.528;2022-08-21T03:43:57;2.70;;;1.87;;
4577;SDS011;2301;47.354;8.528;2022-08-21T03:46:25;3.00;;;2.10;;
4577;SDS011;2301;47.354;8.528;2022-08-21T03:48:52;3.93;;;2.03;;
4577;SDS011;2301;47.354;8.528;2022-08-21T03:51:18;2.23;;;2.03;;
4577;SDS011;2301;47.354;8.528;2022-08-21T03:53:45;2.47;;;1.90;;
4577;SDS011;2301;47.354;8.528;2022-08-21T03:56:14;1.90;;;1.80;;
4577;SDS011;2301;47.354;8.528;2022-08-21T03:58:41;2.63;;;1.80;;
4577;SDS011;2301;47.354;8.528;2022-08-21T04:01:09;1.80;;;1.70;;
4577;SDS011;2301;47.354;8.528;2022-08-21T04:03:36;2.10;;;1.90;;
4577;SDS011;2301;47.354;8.528;2022-08-21T04:06:04;1.80;;;1.70;;
4577;SDS011;2301;47.354;8.528;2022-08-21T04:08:32;3.13;;;1.67;;
4577;SDS011;2301;47.354;8.528;2022-08-21T04:11:00;2.10;;;2.00;;
4577;SDS011;2301;47.354;8.528;2022-08-21T04:13:28;1.60;;;1.50;;
4577;SDS011;2301;47.354;8.528;2022-08-21T04:15:55;2.57;;;2.00;;
4577;SDS011;2301;47.354;8.528;2022-08-21T04:18:23;1.80;;;1.70;;
4577;SDS011;2301;47.354;8.528;2022-08-21T04:20:51;2.00;;;1.67;;
4577;SDS011;2301;47.354;8.528;2022-08-21T04:23:19;2.70;;;1.83;;
4577;SDS011;2301;47.354;8.528;2022-08-21T04:25:47;6.63;;;1.87;;
4577;SDS011;2301;47.354;8.528;2022-08-21T04:28:14;4.67;;;1.70;;
4577;SDS011;2301;47.354;8.528;2022-08-21T04:30:42;2.03;;;1.90;;
4577;SDS011;2301;47.354;8.528;2022-08-21T04:33:09;3.37;;;2.20;;
4577;SDS011;2301;47.354;8.528;2022-08-21T04:35:36;3.63;;;1.90;;
4577;SDS011;2301;47.354;8.528;2022-08-21T04:38:03;2.40;;;2.00;;
4577;SDS011;2301;47.354;8.528;2022-08-21T04:40:30;2.70;;;2.10;;
4577;SDS011;2301;47.354;8.528;2022-08-21T04:42:58;3.10;;;1.77;;
4577;SDS011;2301;47.354;8.528;2022-08-21T04:45:28;2.43;;;2.23;;
4577;SDS011;2301;47.354;8.528;2022-08-21T04:47:58;2.27;;;1.90;;
4577;SDS011;2301;47.354;8.528;2022-08-21T04:50:27;3.00;;;1.87;;
4577;SDS011;2301;47.354;8.528;2022-08-21T04:52:57;5.80;;;1.93;;
4577;SDS011;2301;47.354;8.528;2022-08-21T04:55:26;1.80;;;1.67;;
4577;SDS011;2301;47.354;8.528;2022-08-21T04:57:54;2.10;;;1.90;;
4577;SDS011;2301;47.354;8.528;2022-08-21T05:00:22;2.17;;;1.90;;
4577;SDS011;2301;47.354;8.528;2022-08-21T05:02:50;2.33;;;2.13;;
4577;SDS011;2301;47.354;8.528;2022-08-21T05:05:23;1.97;;;1.87;;
4577;SDS011;2301;47.354;8.528;2022-08-21T05:07:50;2.73;;;2.10;;
4577;SDS011;2301;47.354;8.528;2022-08-21T05:10:19;3.30;;;1.70;;
4577;SDS011;2301;47.354;8.528;2022-08-21T05:12:46;1.90;;;1.80;;
4577;SDS011;2301;47.354;8.528;2022-08-21T05:15:13;4.90;;;1.70;;
4577;SDS011;2301;47.354;8.528;2022-08-21T05:17:41;10.67;;;2.00;;
4577;SDS011;2301;47.354;8.528;2022-08-21T05:20:09;2.40;;;2.20;;
4577;SDS011;2301;47.354;8.528;2022-08-21T05:22:38;3.30;;;1.87;;
4577;SDS011;2301;47.354;8.528;2022-08-21T05:25:06;2.60;;;1.67;;
4577;SDS011;2301;47.354;8.528;2022-08-21T05:27:33;3.63;;;2.00;;
4577;SDS011;2301;47.354;8.528;2022-08-21T05:30:00;5.60;;;2.33;;
4577;SDS011;2301;47.354;8.528;2022-08-21T05:32:28;4.13;;;2.80;;
4577;SDS011;2301;47.354;8.528;2022-08-21T05:34:55;2.90;;;2.67;;
4577;SDS011;2301;47.354;8.528;2022-08-21T05:37:22;2.60;;;2.40;;
4577;SDS011;2301;47.354;8.528;2022-08-21T05:39:50;2.97;;;2.40;;
4577;SDS011;2301;47.354;8.528;2022-08-21T05:42:17;2.70;;;2.50;;
4577;SDS011;2301;47.354;8.528;2022-08-21T05:44:44;4.40;;;2.30;;
4577;SDS011;2301;47.354;8.528;2022-08-21T05:47:11;3.00;;;2.40;;
4577;SDS011;2301;47.354;8.528;2022-08-21T05:49:38;2.00;;;1.90;;
4577;SDS011;2301;47.354;8.528;2022-08-21T05:52:05;4.70;;;2.70;;
4577;SDS011;2301;47.354;8.528;2022-08-21T05:54:31;1.90;;;1.80;;
4577;SDS011;2301;47.354;8.528;2022-08-21T05:57:00;5.23;;;2.20;;
4577;SDS011;2301;47.354;8.528;2022-08-21T05:59:27;7.17;;;2.30;;
4577;SDS011;2301;47.354;8.528;2022-08-21T06:01:54;3.30;;;2.23;;
4577;SDS011;2301;47.354;8.528;2022-08-21T06:04:20;2.40;;;2.23;;
4577;SDS011;2301;47.354;8.528;2022-08-21T06:06:47;2.30;;;2.10;;
4577;SDS011;2301;47.354;8.528;2022-08-21T06:09:14;2.53;;;2.33;;
4577;SDS011;2301;47.354;8.528;2022-08-21T06:11:41;3.20;;;2.17;;
4577;SDS011;2301;47.354;8.528;2022-08-21T06:14:09;1.90;;;1.80;;
4577;SDS011;2301;47.354;8.528;2022-08-21T06:16:39;2.57;;;2.20;;
4577;SDS011;2301;47.354;8.528;2022-08-21T06:19:06;2.50;;;2.00;;
4577;SDS011;2301;47.354;8.528;2022-08-21T06:21:33;3.53;;;2.30;;
4577;SDS011;2301;47.354;8.528;2022-08-21T06:24:00;2.80;;;2.00;;
4577;SDS011;2301;47.354;8.528;2022-08-21T06:26:27;2.73;;;2.30;;
4577;SDS011;2301;47.354;8.528;2022-08-21T06:28:54;3.40;;;2.60;;
4577;SDS011;2301;47.354;8.528;2022-08-21T06:31:22;3.27;;;2.97;;
4577;SDS011;2301;47.354;8.528;2022-08-21T06:33:51;2.63;;;2.43;;
4577;SDS011;2301;47.354;8.528;2022-08-21T06:36:18;5.93;;;2.93;;
4577;SDS011;2301;47.354;8.528;2022-08-21T06:38:46;3.10;;;2.50;;
4577;SDS011;2301;47.354;8.528;2022-08-21T06:41:13;5.17;;;2.90;;
4577;SDS011;2301;47.354;8.528;2022-08-21T06:43:41;3.10;;;2.80;;
4577;SDS011;2301;47.354;8.528;2022-08-21T06:46:08;3.00;;;2.40;;
4577;SDS011;2301;47.354;8.528;2022-08-21T06:48:36;2.90;;;2.70;;
4577;SDS011;2301;47.354;8.528;2022-08-21T06:51:03;3.23;;;2.93;;
4577;SDS011;2301;47.354;8.528;2022-08-21T06:53:30;3.07;;;2.80;;
4577;SDS011;2301;47.354;8.528;2022-08-21T06:55:57;3.30;;;3.00;;
4577;SDS011;2301;47.354;8.528;2022-08-21T06:58:24;4.60;;;2.73;;
4577;SDS011;2301;47.354;8.528;2022-08-21T07:00:51;3.27;;;3.07;;
4577;SDS011;2301;47.354;8.528;2022-08-21T07:03:19;6.60;;;3.20;;
4577;SDS011;2301;47.354;8.528;2022-08-21T07:05:48;2.93;;;2.67;;
4577;SDS011;2301;47.354;8.528;2022-08-21T07:08:16;3.60;;;2.63;;
4577;SDS011;2301;47.354;8.528;2022-08-21T07:10:43;3.17;;;2.80;;
4577;SDS011;2301;47.354;8.528;2022-08-21T07:13:11;2.77;;;2.57;;
4577;SDS011;2301;47.354;8.528;2022-08-21T07:15:38;3.10;;;2.90;;
4577;SDS011;2301;47.354;8.528;2022-08-21T07:18:05;4.90;;;2.83;;
4577;SDS011;2301;47.354;8.528;2022-08-21T07:20:32;2.73;;;2.53;;
4577;SDS011;2301;47.354;8.528;2022-08-21T07:23:01;2.40;;;2.20;;
4577;SDS011;2301;47.354;8.528;2022-08-21T07:25:30;3.53;;;3.23;;
4577;SDS011;2301;47.354;8.528;2022-08-21T07:27:57;5.00;;;3.03;;
4577;SDS011;2301;47.354;8.528;2022-08-21T07:30:24;3.60;;;2.50;;
4577;SDS011;2301;47.354;8.528;2022-08-21T07:32:52;2.40;;;2.27;;
4577;SDS011;2301;47.354;8.528;2022-08-21T07:35:19;3.23;;;3.03;;
4577;SDS011;2301;47.354;8.528;2022-08-21T07:37:47;10.17;;;3.03;;
4577;SDS011;2301;47.354;8.528;2022-08-21T07:40:16;3.00;;;2.70;;
4577;SDS011;2301;47.354;8.528;2022-08-21T07:42:45;4.20;;;3.80;;
4577;SDS011;2301;47.354;8.528;2022-08-21T07:45:15;4.83;;;4.33;;
4577;SDS011;2301;47.354;8.528;2022-08-21T07:47:42;5.43;;;4.03;;
4577;SDS011;2301;47.354;8.528;2022-08-21T07:50:09;6.27;;;4.80;;
4577;SDS011;2301;47.354;8.528;2022-08-21T07:52:37;4.50;;;4.10;;
4577;SDS011;2301;47.354;8.528;2022-08-21T07:55:04;4.77;;;3.00;;
4577;SDS011;2301;47.354;8.528;2022-08-21T07:57:34;3.37;;;2.83;;
4577;SDS011;2301;47.354;8.528;2022-08-21T08:00:01;5.10;;;3.80;;
4577;SDS011;2301;47.354;8.528;2022-08-21T08:02:29;2.87;;;2.67;;
4577;SDS011;2301;47.354;8.528;2022-08-21T08:04:58;3.20;;;3.00;;
4577;SDS011;2301;47.354;8.528;2022-08-21T08:07:26;3.30;;;3.10;;
4577;SDS011;2301;47.354;8.528;2022-08-21T08:09:53;2.87;;;2.70;;
4577;SDS011;2301;47.354;8.528;2022-08-21T08:12:20;2.80;;;2.60;;
4577;SDS011;2301;47.354;8.528;2022-08-21T08:14:48;2.80;;;2.60;;
4577;SDS011;2301;47.354;8.528;2022-08-21T08:17:15;2.40;;;2.30;;
4577;SDS011;2301;47.354;8.528;2022-08-21T08:19:47;2.13;;;2.03;;
4577;SDS011;2301;47.354;8.528;2022-08-21T08:22:14;2.90;;;2.53;;
4577;SDS011;2301;47.354;8.528;2022-08-21T08:24:42;2.30;;;2.00;;
4577;SDS011;2301;47.354;8.528;2022-08-21T08:27:09;2.70;;;1.70;;
4577;SDS011;2301;47.354;8.528;2022-08-21T08:29:36;2.40;;;1.93;;
4577;SDS011;2301;47.354;8.528;2022-08-21T08:32:05;2.60;;;2.40;;
4577;SDS011;2301;47.354;8.528;2022-08-21T08:34:33;2.40;;;2.20;;
4577;SDS011;2301;47.354;8.528;2022-08-21T08:37:00;2.13;;;1.90;;
4577;SDS011;2301;47.354;8.528;2022-08-21T08:39:28;2.70;;;2.50;;
4577;SDS011;2301;47.354;8.528;2022-08-21T08:41:56;3.20;;;2.87;;
4577;SDS011;2301;47.354;8.528;2022-08-21T08:44:25;1.93;;;1.83;;
4577;SDS011;2301;47.354;8.528;2022-08-21T08:46:52;2.53;;;2.17;;
4577;SDS011;2301;47.354;8.528;2022-08-21T08:49:23;2.33;;;2.23;;
4577;SDS011;2301;47.354;8.528;2022-08-21T08:51:59;3.37;;;2.30;;
4577;SDS011;2301;47.354;8.528;2022-08-21T08:54:29;2.20;;;2.10;;
4577;SDS011;2301;47.354;8.528;2022-08-21T08:56:59;2.40;;;2.30;;
4577;SDS011;2301;47.354;8.528;2022-08-21T08:59:32;1.90;;;1.80;;
4577;SDS011;2301;47.354;8.528;2022-08-21T09:02:04;1.90;;;1.80;;
4577;SDS011;2301;47.354;8.528;2022-08-21T09:04:33;1.67;;;1.57;;
4577;SDS011;2301;47.354;8.528;2022-08-21T09:07:02;2.70;;;2.23;;
4577;SDS011;2301;47.354;8.528;2022-08-21T09:09:41;2.60;;;1.93;;
4577;SDS011;2301;47.354;8.528;2022-08-21T09:12:19;2.50;;;1.87;;
4577;SDS011;2301;47.354;8.528;2022-08-21T09:14:58;1.97;;;1.87;;
4577;SDS011;2301;47.354;8.528;2022-08-21T09:17:36;2.00;;;1.90;;
4577;SDS011;2301;47.354;8.528;2022-08-21T09:20:12;1.90;;;1.80;;
4577;SDS011;2301;47.354;8.528;2022-08-21T09:22:47;1.90;;;1.80;;
4577;SDS011;2301;47.354;8.528;2022-08-21T09:25:25;2.87;;;1.90;;
4577;SDS011;2301;47.354;8.528;2022-08-21T09:27:54;2.10;;;2.00;;
4577;SDS011;2301;47.354;8.528;2022-08-21T09:30:24;2.30;;;2.20;;
4577;SDS011;2301;47.354;8.528;2022-08-21T09:32:53;2.47;;;2.27;;
4577;SDS011;2301;47.354;8.528;2022-08-21T09:35:21;2.30;;;1.57;;
4577;SDS011;2301;47.354;8.528;2022-08-21T09:37:51;3.10;;;1.93;;
4577;SDS011;2301;47.354;8.528;2022-08-21T09:40:25;2.43;;;2.23;;
4577;SDS011;2301;47.354;8.528;2022-08-21T09:42:56;6.20;;;1.93;;
4577;SDS011;2301;47.354;8.528;2022-08-21T09:45:25;2.30;;;2.10;;
4577;SDS011;2301;47.354;8.528;2022-08-21T09:47:52;2.13;;;2.03;;
4577;SDS011;2301;47.354;8.528;2022-08-21T09:50:20;3.00;;;2.30;;
4577;SDS011;2301;47.354;8.528;2022-08-21T09:52:52;3.13;;;2.07;;
4577;SDS011;2301;47.354;8.528;2022-08-21T09:55:23;3.30;;;2.30;;
4577;SDS011;2301;47.354;8.528;2022-08-21T09:58:15;1.77;;;1.67;;
4577;SDS011;2301;47.354;8.528;2022-08-21T10:00:42;2.30;;;2.17;;
4577;SDS011;2301;47.354;8.528;2022-08-21T10:03:10;2.50;;;2.23;;
4577;SDS011;2301;47.354;8.528;2022-08-21T10:05:49;2.40;;;2.30;;
4577;SDS011;2301;47.354;8.528;2022-08-21T10:08:22;1.83;;;1.73;;
4577;SDS011;2301;47.354;8.528;2022-08-21T10:10:51;2.00;;;1.90;;
4577;SDS011;2301;47.354;8.528;2022-08-21T10:13:21;3.50;;;2.80;;
4577;SDS011;2301;47.354;8.528;2022-08-21T10:16:01;5.83;;;1.87;;
4577;SDS011;2301;47.354;8.528;2022-08-21T10:18:39;2.00;;;1.83;;
4577;SDS011;2301;47.354;8.528;2022-08-21T10:21:17;2.77;;;2.20;;
4577;SDS011;2301;47.354;8.528;2022-08-21T10:23:54;7.90;;;2.40;;
4577;SDS011;2301;47.354;8.528;2022-08-21T10:26:31;7.67;;;2.57;;
4577;SDS011;2301;47.354;8.528;2022-08-21T10:29:10;2.10;;;1.90;;
4577;SDS011;2301;47.354;8.528;2022-08-21T10:31:46;1.90;;;1.80;;
4577;SDS011;2301;47.354;8.528;2022-08-21T10:34:24;1.80;;;1.70;;
4577;SDS011;2301;47.354;8.528;2022-08-21T10:37:05;1.77;;;1.67;;
4577;SDS011;2301;47.354;8.528;2022-08-21T10:39:42;2.77;;;1.50;;
4577;SDS011;2301;47.354;8.528;2022-08-21T10:42:31;1.63;;;1.53;;
4577;SDS011;2301;47.354;8.528;2022-08-21T10:45:08;1.50;;;1.37;;
4577;SDS011;2301;47.354;8.528;2022-08-21T10:47:42;1.33;;;1.33;;
4577;SDS011;2301;47.354;8.528;2022-08-21T10:50:17;2.40;;;1.50;;
4577;SDS011;2301;47.354;8.528;2022-08-21T10:52:57;1.27;;;1.27;;
4577;SDS011;2301;47.354;8.528;2022-08-21T10:55:31;1.67;;;1.57;;
4577;SDS011;2301;47.354;8.528;2022-08-21T10:58:04;3.53;;;1.70;;
4577;SDS011;2301;47.354;8.528;2022-08-21T11:00:38;6.27;;;2.20;;
4577;SDS011;2301;47.354;8.528;2022-08-21T11:03:10;1.67;;;1.40;;
4577;SDS011;2301;47.354;8.528;2022-08-21T11:05:40;1.60;;;1.50;;
4577;SDS011;2301;47.354;8.528;2022-08-21T11:08:12;2.60;;;1.57;;
4577;SDS011;2301;47.354;8.528;2022-08-21T11:10:42;1.60;;;1.50;;
4577;SDS011;2301;47.354;8.528;2022-08-21T11:13:14;2.10;;;1.20;;
4577;SDS011;2301;47.354;8.528;2022-08-21T11:15:51;2.10;;;1.33;;
4577;SDS011;2301;47.354;8.528;2022-08-21T11:18:24;1.50;;;1.40;;
4577;SDS011;2301;47.354;8.528;2022-08-21T11:20:56;2.07;;;1.77;;
4577;SDS011;2301;47.354;8.528;2022-08-21T11:23:33;1.27;;;1.20;;
4577;SDS011;2301;47.354;8.528;2022-08-21T11:26:08;3.40;;;1.80;;
4577;SDS011;2301;47.354;8.528;2022-08-21T11:28:42;1.80;;;1.70;;
4577;SDS011;2301;47.354;8.528;2022-08-21T11:31:16;3.17;;;1.80;;
4577;SDS011;2301;47.354;8.528;2022-08-21T11:33:57;1.73;;;1.40;;
4577;SDS011;2301;47.354;8.528;2022-08-21T11:36:37;1.67;;;1.57;;
4577;SDS011;2301;47.354;8.528;2022-08-21T11:39:15;2.17;;;1.80;;
4577;SDS011;2301;47.354;8.528;2022-08-21T11:41:51;1.50;;;1.40;;
4577;SDS011;2301;47.354;8.528;2022-08-21T11:44:39;1.70;;;1.60;;
4577;SDS011;2301;47.354;8.528;2022-08-21T11:47:13;1.47;;;1.37;;
4577;SDS011;2301;47.354;8.528;2022-08-21T11:49:54;1.90;;;1.43;;
4577;SDS011;2301;47.354;8.528;2022-08-21T11:52:31;4.07;;;1.60;;
4577;SDS011;2301;47.354;8.528;2022-08-21T11:55:04;2.40;;;1.60;;
4577;SDS011;2301;47.354;8.528;2022-08-21T11:57:35;1.30;;;1.30;;
4577;SDS011;2301;47.354;8.528;2022-08-21T12:00:06;2.03;;;1.60;;
4577;SDS011;2301;47.354;8.528;2022-08-21T12:02:40;1.60;;;1.50;;
4577;SDS011;2301;47.354;8.528;2022-08-21T12:05:21;1.47;;;1.37;;
4577;SDS011;2301;47.354;8.528;2022-08-21T12:07:59;1.20;;;1.10;;
4577;SDS011;2301;47.354;8.528;2022-08-21T12:10:33;1.30;;;1.20;;
4577;SDS011;2301;47.354;8.528;2022-08-21T12:13:06;2.30;;;1.60;;
4577;SDS011;2301;47.354;8.528;2022-08-21T12:15:36;1.67;;;1.40;;
4577;SDS011;2301;47.354;8.528;2022-08-21T12:18:04;1.57;;;1.47;;
4577;SDS011;2301;47.354;8.528;2022-08-21T12:20:35;1.53;;;1.30;;
4577;SDS011;2301;47.354;8.528;2022-08-21T12:23:14;2.57;;;1.93;;
4577;SDS011;2301;47.354;8.528;2022-08-21T12:25:46;3.37;;;1.87;;
4577;SDS011;2301;47.354;8.528;2022-08-21T12:28:24;1.87;;;1.60;;
4577;SDS011;2301;47.354;8.528;2022-08-21T12:30:52;1.53;;;1.37;;
4577;SDS011;2301;47.354;8.528;2022-08-21T12:33:20;2.90;;;2.00;;
4577;SDS011;2301;47.354;8.528;2022-08-21T12:35:50;1.87;;;1.70;;
4577;SDS011;2301;47.354;8.528;2022-08-21T12:38:21;1.83;;;1.73;;
4577;SDS011;2301;47.354;8.528;2022-08-21T12:40:54;2.20;;;1.80;;
4577;SDS011;2301;47.354;8.528;2022-08-21T12:43:25;2.17;;;1.60;;
4577;SDS011;2301;47.354;8.528;2022-08-21T12:45:57;2.50;;;1.50;;
4577;SDS011;2301;47.354;8.528;2022-08-21T12:48:27;4.33;;;1.60;;
4577;SDS011;2301;47.354;8.528;2022-08-21T12:51:05;2.77;;;1.87;;
4577;SDS011;2301;47.354;8.528;2022-08-21T12:53:36;1.70;;;1.60;;
4577;SDS011;2301;47.354;8.528;2022-08-21T12:56:10;2.40;;;1.60;;
4577;SDS011;2301;47.354;8.528;2022-08-21T12:58:40;2.10;;;1.60;;
4577;SDS011;2301;47.354;8.528;2022-08-21T13:01:13;1.93;;;1.50;;
4577;SDS011;2301;47.354;8.528;2022-08-21T13:03:45;1.87;;;1.53;;
4577;SDS011;2301;47.354;8.528;2022-08-21T13:06:13;3.27;;;1.70;;
4577;SDS011;2301;47.354;8.528;2022-08-21T13:08:43;1.70;;;1.60;;
4577;SDS011;2301;47.354;8.528;2022-08-21T13:11:14;1.60;;;1.50;;
4577;SDS011;2301;47.354;8.528;2022-08-21T13:13:45;1.67;;;1.57;;
4577;SDS011;2301;47.354;8.528;2022-08-21T13:16:18;2.13;;;1.30;;
4577;SDS011;2301;47.354;8.528;2022-08-21T13:18:51;1.67;;;1.50;;
4577;SDS011;2301;47.354;8.528;2022-08-21T13:21:20;2.60;;;1.50;;
4577;SDS011;2301;47.354;8.528;2022-08-21T13:23:47;1.83;;;1.30;;
4577;SDS011;2301;47.354;8.528;2022-08-21T13:26:16;1.73;;;1.63;;
4577;SDS011;2301;47.354;8.528;2022-08-21T13:28:44;1.60;;;1.50;;
4577;SDS011;2301;47.354;8.528;2022-08-21T13:31:15;1.50;;;1.37;;
4577;SDS011;2301;47.354;8.528;2022-08-21T13:33:45;2.53;;;1.57;;
4577;SDS011;2301;47.354;8.528;2022-08-21T13:36:17;1.33;;;1.23;;
4577;SDS011;2301;47.354;8.528;2022-08-21T13:38:48;1.20;;;1.10;;
4577;SDS011;2301;47.354;8.528;2022-08-21T13:41:19;1.50;;;1.40;;
4577;SDS011;2301;47.354;8.528;2022-08-21T13:43:49;1.53;;;1.40;;
4577;SDS011;2301;47.354;8.528;2022-08-21T13:46:22;1.50;;;1.40;;
4577;SDS011;2301;47.354;8.528;2022-08-21T13:48:51;1.43;;;1.33;;
4577;SDS011;2301;47.354;8.528;2022-08-21T13:51:19;1.40;;;1.30;;
4577;SDS011;2301;47.354;8.528;2022-08-21T13:53:47;1.80;;;1.40;;
4577;SDS011;2301;47.354;8.528;2022-08-21T13:56:25;1.57;;;1.40;;
4577;SDS011;2301;47.354;8.528;2022-08-21T13:58:55;1.60;;;1.13;;
4577;SDS011;2301;47.354;8.528;2022-08-21T14:01:25;1.50;;;1.43;;
4577;SDS011;2301;47.354;8.528;2022-08-21T14:03:56;2.37;;;1.60;;
4577;SDS011;2301;47.354;8.528;2022-08-21T14:06:27;1.50;;;1.40;;
4577;SDS011;2301;47.354;8.528;2022-08-21T14:08:59;5.03;;;1.30;;
4577;SDS011;2301;47.354;8.528;2022-08-21T14:11:32;1.57;;;1.47;;
4577;SDS011;2301;47.354;8.528;2022-08-21T14:14:02;3.37;;;1.30;;
4577;SDS011;2301;47.354;8.528;2022-08-21T14:16:41;2.23;;;1.30;;
4577;SDS011;2301;47.354;8.528;2022-08-21T14:19:11;3.50;;;1.70;;
4577;SDS011;2301;47.354;8.528;2022-08-21T14:21:45;5.60;;;1.50;;
4577;SDS011;2301;47.354;8.528;2022-08-21T14:24:13;1.47;;;1.10;;
4577;SDS011;2301;47.354;8.528;2022-08-21T14:26:54;1.40;;;1.30;;
4577;SDS011;2301;47.354;8.528;2022-08-21T14:29:24;1.43;;;1.27;;
4577;SDS011;2301;47.354;8.528;2022-08-21T14:31:53;1.20;;;1.10;;
4577;SDS011;2301;47.354;8.528;2022-08-21T14:34:22;3.03;;;1.47;;
4577;SDS011;2301;47.354;8.528;2022-08-21T14:36:51;3.70;;;1.53;;
4577;SDS011;2301;47.354;8.528;2022-08-21T14:39:18;1.63;;;1.10;;
4577;SDS011;2301;47.354;8.528;2022-08-21T14:41:45;2.07;;;1.20;;
4577;SDS011;2301;47.354;8.528;2022-08-21T14:44:15;1.00;;;1.00;;
4577;SDS011;2301;47.354;8.528;2022-08-21T14:46:43;1.93;;;1.30;;
4577;SDS011;2301;47.354;8.528;2022-08-21T14:49:10;1.33;;;1.23;;
4577;SDS011;2301;47.354;8.528;2022-08-21T14:51:37;2.30;;;1.40;;
4577;SDS011;2301;47.354;8.528;2022-08-21T14:54:05;2.60;;;1.40;;
4577;SDS011;2301;47.354;8.528;2022-08-21T14:56:32;1.93;;;1.13;;
4577;SDS011;2301;47.354;8.528;2022-08-21T14:59:00;1.70;;;1.37;;
4577;SDS011;2301;47.354;8.528;2022-08-21T15:01:31;2.33;;;1.50;;
4577;SDS011;2301;47.354;8.528;2022-08-21T15:04:00;3.37;;;1.10;;
4577;SDS011;2301;47.354;8.528;2022-08-21T15:06:27;1.30;;;1.20;;
4577;SDS011;2301;47.354;8.528;2022-08-21T15:08:54;1.00;;;1.00;;
4577;SDS011;2301;47.354;8.528;2022-08-21T15:11:22;1.30;;;1.20;;
4577;SDS011;2301;47.354;8.528;2022-08-21T15:13:51;1.10;;;1.00;;
4577;SDS011;2301;47.354;8.528;2022-08-21T15:16:22;1.57;;;1.30;;
4577;SDS011;2301;47.354;8.528;2022-08-21T15:18:50;1.30;;;1.07;;
4577;SDS011;2301;47.354;8.528;2022-08-21T15:21:17;1.10;;;1.00;;
4577;SDS011;2301;47.354;8.528;2022-08-21T15:23:44;1.53;;;1.20;;
4577;SDS011;2301;47.354;8.528;2022-08-21T15:26:11;1.07;;;0.97;;
4577;SDS011;2301;47.354;8.528;2022-08-21T15:28:38;2.90;;;1.30;;
4577;SDS011;2301;47.354;8.528;2022-08-21T15:31:05;3.20;;;1.10;;